createdAt,value
2023-06-07T00:01:07.615Z,99.90
2023-06-07T00:03:35.961Z,99.90
2023-06-07T00:06:04.328Z,99.90
2023-06-07T00:08:32.202Z,99.90
2023-06-07T00:11:00.415Z,99.90
2023-06-07T00:13:28.294Z,99.90
2023-06-07T00:15:57.489Z,99.90
2023-06-07T00:18:25.874Z,99.90
2023-06-07T00:20:53.769Z,99.90
2023-06-07T00:23:22.855Z,99.90
2023-06-07T00:25:50.892Z,99.90
2023-06-07T00:28:18.812Z,99.90
2023-06-07T00:30:46.685Z,99.90
2023-06-07T00:33:16.056Z,99.90
2023-06-07T00:35:44.045Z,99.90
2023-06-07T00:38:11.949Z,99.90
2023-06-07T00:40:39.768Z,99.90
2023-06-07T00:43:07.663Z,99.90
2023-06-07T00:45:35.580Z,99.90
2023-06-07T00:48:03.924Z,99.90
2023-06-07T00:50:33.255Z,99.90
2023-06-07T00:53:01.401Z,99.90
2023-06-07T00:55:29.400Z,99.90
2023-06-07T00:57:58.062Z,99.90
2023-06-07T01:00:26.728Z,99.90
2023-06-07T01:02:56.658Z,99.90
2023-06-07T01:05:24.730Z,99.90
2023-06-07T01:07:55.727Z,99.90
2023-06-07T01:10:23.771Z,99.90
2023-06-07T01:12:55.856Z,99.90
2023-06-07T01:15:25.391Z,99.90
2023-06-07T01:17:54.820Z,99.90
2023-06-07T01:20:24.984Z,99.90
2023-06-07T01:22:57.971Z,99.90
2023-06-07T01:25:27.754Z,99.90
2023-06-07T01:27:58.010Z,99.90
2023-06-07T01:30:26.888Z,99.90
2023-06-07T01:32:55.143Z,99.90
2023-06-07T01:35:23.658Z,99.90
2023-06-07T01:37:53.046Z,99.90
2023-06-07T01:40:22.355Z,99.90
2023-06-07T01:42:52.676Z,99.90
2023-06-07T01:45:21.072Z,99.90
2023-06-07T01:47:49.237Z,99.90
2023-06-07T01:50:22.826Z,99.90
2023-06-07T01:52:50.870Z,99.90
2023-06-07T01:55:19.326Z,99.90
2023-06-07T01:57:59.211Z,99.90
2023-06-07T02:00:31.465Z,99.90
2023-06-07T02:03:03.549Z,99.90
2023-06-07T02:05:35.631Z,99.90
2023-06-07T02:08:09.502Z,99.90
2023-06-07T02:10:40.759Z,99.90
2023-06-07T02:13:10.928Z,99.90
2023-06-07T02:15:38.948Z,99.90
2023-06-07T02:18:07.086Z,99.90
2023-06-07T02:20:35.896Z,99.90
2023-06-07T02:23:04.008Z,99.90
2023-06-07T02:25:32.413Z,99.90
2023-06-07T02:28:01.095Z,99.90
2023-06-07T02:30:30.342Z,99.90
2023-06-07T02:32:58.212Z,99.90
2023-06-07T02:35:26.168Z,99.90
2023-06-07T02:37:54.174Z,99.90
2023-06-07T02:40:21.971Z,99.90
2023-06-07T02:42:50.489Z,99.90
2023-06-07T02:45:18.345Z,99.90
2023-06-07T02:47:47.663Z,99.90
2023-06-07T02:50:15.630Z,99.90
2023-06-07T02:52:45.397Z,99.90
2023-06-07T02:55:13.254Z,99.90
2023-06-07T02:57:41.767Z,99.90
2023-06-07T03:00:13.038Z,99.90
2023-06-07T03:02:41.306Z,99.90
2023-06-07T03:05:11.138Z,99.90
2023-06-07T03:07:41.511Z,99.90
2023-06-07T03:10:10.406Z,99.90
2023-06-07T03:12:38.249Z,99.90
2023-06-07T03:15:08.903Z,99.90
2023-06-07T03:17:36.991Z,99.90
2023-06-07T03:20:07.553Z,99.90
2023-06-07T03:22:37.782Z,99.90
2023-06-07T03:25:07.769Z,99.90
2023-06-07T03:27:36.052Z,99.90
2023-06-07T03:30:06.426Z,99.90
2023-06-07T03:32:34.688Z,99.90
2023-06-07T03:35:02.549Z,99.90
2023-06-07T03:37:30.386Z,99.90
2023-06-07T03:39:59.536Z,99.90
2023-06-07T03:42:27.431Z,99.90
2023-06-07T03:44:55.240Z,99.90
2023-06-07T03:47:23.401Z,99.90
2023-06-07T03:49:51.366Z,99.90
2023-06-07T03:52:19.286Z,99.90
2023-06-07T03:54:47.181Z,99.90
2023-06-07T03:57:16.353Z,99.90
2023-06-07T03:59:44.287Z,99.90
2023-06-07T04:02:12.114Z,99.90
2023-06-07T04:04:43.706Z,99.90
2023-06-07T04:07:11.586Z,99.90
2023-06-07T04:09:41.027Z,99.90
2023-06-07T04:12:09.646Z,99.90
2023-06-07T04:14:38.873Z,99.90
2023-06-07T04:17:07.532Z,99.90
2023-06-07T04:19:35.359Z,99.90
2023-06-07T04:22:05.656Z,99.90
2023-06-07T04:24:33.568Z,99.90
2023-06-07T04:27:02.349Z,99.90
2023-06-07T04:29:31.539Z,99.90
2023-06-07T04:32:02.854Z,99.90
2023-06-07T04:34:33.075Z,99.90
2023-06-07T04:37:04.899Z,99.90
2023-06-07T04:39:33.985Z,99.90
2023-06-07T04:42:04.383Z,99.90
2023-06-07T04:44:32.332Z,99.90
2023-06-07T04:47:08.154Z,99.90
2023-06-07T04:49:39.678Z,99.90
2023-06-07T04:52:08.523Z,99.90
2023-06-07T04:54:37.484Z,99.90
2023-06-07T04:57:07.787Z,99.90
2023-06-07T04:59:42.831Z,99.90
2023-06-07T05:02:12.186Z,99.90
2023-06-07T05:04:40.382Z,99.90
2023-06-07T05:07:08.348Z,99.90
2023-06-07T05:09:36.478Z,99.90
2023-06-07T05:12:05.036Z,99.90
2023-06-07T05:14:33.186Z,99.90
2023-06-07T05:17:01.158Z,99.90
2023-06-07T05:19:31.009Z,99.90
2023-06-07T05:21:58.939Z,99.90
2023-06-07T05:24:27.128Z,99.90
2023-06-07T05:26:55.057Z,99.90
2023-06-07T05:29:22.883Z,99.90
2023-06-07T05:31:50.775Z,99.90
2023-06-07T05:34:18.671Z,99.90
2023-06-07T05:36:48.859Z,99.90
2023-06-07T05:39:16.833Z,99.90
2023-06-07T05:41:44.850Z,99.90
2023-06-07T05:44:12.749Z,99.90
2023-06-07T05:46:41.137Z,99.90
2023-06-07T05:49:09.037Z,99.90
2023-06-07T05:51:37.674Z,99.90
2023-06-07T05:54:07.886Z,99.90
2023-06-07T05:56:35.936Z,99.90
2023-06-07T05:59:03.835Z,99.90
2023-06-07T06:01:32.013Z,99.90
2023-06-07T06:03:59.861Z,99.90
2023-06-07T06:06:27.705Z,99.90
2023-06-07T06:08:55.628Z,99.90
2023-06-07T06:11:24.958Z,99.90
2023-06-07T06:13:53.038Z,99.90
2023-06-07T06:16:20.896Z,99.90
2023-06-07T06:18:48.731Z,99.90
2023-06-07T06:21:16.901Z,99.90
2023-06-07T06:23:44.854Z,99.90
2023-06-07T06:26:12.777Z,99.90
2023-06-07T06:28:42.209Z,99.90
2023-06-07T06:31:10.221Z,99.90
2023-06-07T06:33:38.093Z,99.90
2023-06-07T06:36:06.408Z,99.90
2023-06-07T06:38:34.267Z,99.90
2023-06-07T06:41:02.240Z,99.90
2023-06-07T06:43:30.165Z,99.90
2023-06-07T06:45:59.388Z,99.90
2023-06-07T06:48:27.324Z,99.90
2023-06-07T06:50:55.296Z,99.90
2023-06-07T06:53:23.215Z,99.90
2023-06-07T06:55:51.166Z,99.90
2023-06-07T06:58:20.406Z,99.90
2023-06-07T07:00:48.290Z,99.90
2023-06-07T07:03:17.483Z,99.90
2023-06-07T07:05:45.390Z,99.90
2023-06-07T07:08:13.371Z,99.90
2023-06-07T07:10:41.311Z,99.90
2023-06-07T07:13:09.172Z,99.90
2023-06-07T07:15:37.300Z,99.90
2023-06-07T07:18:06.118Z,99.90
2023-06-07T07:20:36.203Z,99.90
2023-06-07T07:23:04.299Z,99.90
2023-06-07T07:25:32.319Z,99.90
2023-06-07T07:28:00.204Z,99.90
2023-06-07T07:30:28.099Z,99.90
2023-06-07T07:32:56.367Z,99.90
2023-06-07T07:35:24.591Z,99.90
2023-06-07T07:37:54.788Z,99.90
2023-06-07T07:40:22.820Z,99.90
2023-06-07T07:42:51.051Z,99.90
2023-06-07T07:45:19.045Z,99.90
2023-06-07T07:47:47.066Z,99.90
2023-06-07T07:50:17.496Z,99.90
2023-06-07T07:52:45.348Z,99.90
2023-06-07T07:55:14.546Z,99.90
2023-06-07T07:57:43.846Z,99.90
2023-06-07T08:00:14.685Z,99.90
2023-06-07T08:02:42.797Z,99.90
2023-06-07T08:05:11.457Z,99.90
2023-06-07T08:07:39.348Z,99.90
2023-06-07T08:10:09.252Z,99.90
2023-06-07T08:12:38.434Z,99.90
2023-06-07T08:15:07.123Z,99.90
2023-06-07T08:17:34.965Z,99.90
2023-06-07T08:20:05.902Z,99.90
2023-06-07T08:22:34.160Z,99.90
2023-06-07T08:25:01.983Z,99.90
2023-06-07T08:27:29.783Z,99.90
2023-06-07T08:29:59.038Z,99.90
2023-06-07T08:32:26.927Z,99.90
2023-06-07T08:34:56.623Z,99.90
2023-06-07T08:37:24.615Z,99.90
2023-06-07T08:39:52.468Z,99.90
2023-06-07T08:42:20.332Z,99.90
2023-06-07T08:44:48.382Z,99.90
2023-06-07T08:47:18.693Z,99.90
2023-06-07T08:49:46.971Z,99.90
2023-06-07T08:52:17.160Z,99.90
2023-06-07T08:54:47.762Z,99.90
2023-06-07T08:57:17.636Z,99.90
2023-06-07T08:59:46.252Z,99.90
2023-06-07T09:02:14.739Z,99.90
2023-06-07T09:04:44.766Z,99.90
2023-06-07T09:07:12.822Z,99.90
2023-06-07T09:09:42.752Z,99.90
2023-06-07T09:12:11.846Z,99.90
2023-06-07T09:14:39.708Z,99.90
2023-06-07T09:17:07.699Z,99.90
2023-06-07T09:19:37.837Z,99.90
2023-06-07T09:22:08.929Z,99.90
2023-06-07T09:24:38.763Z,99.90
2023-06-07T09:27:07.431Z,99.90
2023-06-07T09:29:40.788Z,99.90
2023-06-07T09:32:22.158Z,99.90
2023-06-07T09:34:53.298Z,99.90
2023-06-07T09:37:23.106Z,99.90
2023-06-07T09:39:53.333Z,99.90
2023-06-07T09:42:21.910Z,99.90
2023-06-07T09:44:51.888Z,99.90
2023-06-07T09:47:24.289Z,99.90
2023-06-07T09:50:01.562Z,99.90
2023-06-07T09:52:31.103Z,99.90
2023-06-07T09:54:58.972Z,99.90
2023-06-07T09:57:31.328Z,99.90
2023-06-07T10:00:01.438Z,99.90
2023-06-07T10:02:30.551Z,99.90
2023-06-07T10:04:59.878Z,99.90
2023-06-07T10:07:33.076Z,99.90
2023-06-07T10:10:02.365Z,99.90
2023-06-07T10:12:32.825Z,99.90
2023-06-07T10:15:04.695Z,99.90
2023-06-07T10:17:42.873Z,99.90
2023-06-07T10:20:17.529Z,99.90
2023-06-07T10:22:47.831Z,99.90
2023-06-07T10:25:18.602Z,99.90
2023-06-07T10:28:10.033Z,98.70
2023-06-07T10:30:44.552Z,99.90
2023-06-07T10:33:13.286Z,99.90
2023-06-07T10:35:42.680Z,99.90
2023-06-07T10:38:12.380Z,99.90
2023-06-07T10:40:40.778Z,99.90
2023-06-07T10:43:08.817Z,99.90
2023-06-07T10:45:36.690Z,99.90
2023-06-07T10:48:33.640Z,99.90
2023-06-07T10:51:01.451Z,99.90
2023-06-07T10:53:50.543Z,99.90
2023-06-07T10:56:32.524Z,99.90
2023-06-07T10:59:24.281Z,99.90
2023-06-07T11:01:55.319Z,99.90
2023-06-07T11:04:52.355Z,99.90
2023-06-07T11:07:22.033Z,99.70
2023-06-07T11:10:12.019Z,99.90
2023-06-07T11:12:59.189Z,99.90
2023-06-07T11:15:31.822Z,99.90
2023-06-07T11:18:01.109Z,97.60
2023-06-07T11:20:52.522Z,97.40
2023-06-07T11:23:28.430Z,99.90
2023-06-07T11:26:01.471Z,97.30
2023-06-07T11:28:32.988Z,96.90
2023-06-07T11:31:01.651Z,99.50
2023-06-07T11:33:31.996Z,96.20
2023-06-07T11:35:59.967Z,99.70
2023-06-07T11:38:30.627Z,98.10
2023-06-07T11:40:59.870Z,98.80
2023-06-07T11:43:29.146Z,97.20
2023-06-07T11:45:58.263Z,99.50
2023-06-07T11:48:28.846Z,96.10
2023-06-07T11:50:57.276Z,96.40
2023-06-07T11:53:29.599Z,98.30
2023-06-07T11:55:59.074Z,99.90
2023-06-07T11:58:27.249Z,98.30
2023-06-07T12:00:55.256Z,98.30
2023-06-07T12:03:24.071Z,95.90
2023-06-07T12:05:54.219Z,94.20
2023-06-07T12:08:23.401Z,93.70
2023-06-07T12:10:54.939Z,94.90
2023-06-07T12:13:25.340Z,96.10
2023-06-07T12:15:56.571Z,96.30
2023-06-07T12:18:27.953Z,96.70
2023-06-07T12:21:04.058Z,96.40
2023-06-07T12:23:32.354Z,94.70
2023-06-07T12:26:11.369Z,94.90
2023-06-07T12:28:43.178Z,95.00
2023-06-07T12:31:18.997Z,95.70
2023-06-07T12:33:57.263Z,93.70
2023-06-07T12:36:28.252Z,94.90
2023-06-07T12:39:01.353Z,92.40
2023-06-07T12:41:29.605Z,94.10
2023-06-07T12:44:00.273Z,95.50
2023-06-07T12:46:28.161Z,93.40
2023-06-07T12:48:56.116Z,91.80
2023-06-07T12:51:24.040Z,94.60
2023-06-07T12:53:51.985Z,94.70
2023-06-07T12:56:19.829Z,93.50
2023-06-07T12:58:47.700Z,94.60
2023-06-07T13:01:17.361Z,95.30
2023-06-07T13:03:46.228Z,95.70
2023-06-07T13:06:14.138Z,94.90
2023-06-07T13:08:44.629Z,92.60
2023-06-07T13:11:12.807Z,94.30
2023-06-07T13:13:41.248Z,92.30
2023-06-07T13:16:09.829Z,94.30
2023-06-07T13:18:40.574Z,93.30
2023-06-07T13:21:08.957Z,92.80
2023-06-07T13:23:36.864Z,92.50
2023-06-07T13:26:04.863Z,94.80
2023-06-07T13:28:32.923Z,95.10
2023-06-07T13:31:00.730Z,95.20
2023-06-07T13:33:28.596Z,94.20
2023-06-07T13:35:57.796Z,94.90
2023-06-07T13:38:25.595Z,94.30
2023-06-07T13:40:53.512Z,92.80
2023-06-07T13:43:27.685Z,91.70
2023-06-07T13:45:59.546Z,93.30
2023-06-07T13:48:27.427Z,94.60
2023-06-07T13:50:56.752Z,88.50
2023-06-07T13:53:25.309Z,91.90
2023-06-07T13:55:53.191Z,94.10
2023-06-07T13:58:21.847Z,93.30
2023-06-07T14:00:49.747Z,93.70
2023-06-07T14:03:17.789Z,93.00
2023-06-07T14:05:45.782Z,92.50
2023-06-07T14:08:15.364Z,93.20
2023-06-07T14:10:43.273Z,92.60
2023-06-07T14:13:11.498Z,89.60
2023-06-07T14:15:39.317Z,93.30
2023-06-07T14:18:07.259Z,91.50
2023-06-07T14:20:35.194Z,89.70
2023-06-07T14:23:03.049Z,90.70
2023-06-07T14:25:32.578Z,91.80
2023-06-07T14:28:00.595Z,92.20
2023-06-07T14:30:28.472Z,90.90
2023-06-07T14:32:56.673Z,84.90
2023-06-07T14:35:24.622Z,92.20
2023-06-07T14:37:52.512Z,93.70
2023-06-07T14:40:20.822Z,85.50
2023-06-07T14:42:50.041Z,86.10
2023-06-07T14:45:17.931Z,92.00
2023-06-07T14:47:46.024Z,89.50
2023-06-07T14:50:14.001Z,90.00
2023-06-07T14:52:41.894Z,88.00
2023-06-07T14:55:11.121Z,88.70
2023-06-07T14:57:39.266Z,84.60
2023-06-07T15:00:10.713Z,85.30
2023-06-07T15:02:38.672Z,81.90
2023-06-07T15:05:08.847Z,93.40
2023-06-07T15:07:37.002Z,92.70
2023-06-07T15:10:06.096Z,89.50
2023-06-07T15:12:34.296Z,91.40
2023-06-07T15:15:02.497Z,85.50
2023-06-07T15:17:31.695Z,91.80
2023-06-07T15:19:59.618Z,92.10
2023-06-07T15:22:27.614Z,91.10
2023-06-07T15:24:55.513Z,91.30
2023-06-07T15:27:23.359Z,93.50
2023-06-07T15:29:51.204Z,91.70
2023-06-07T15:32:19.020Z,93.90
2023-06-07T15:34:48.170Z,90.90
2023-06-07T15:37:16.038Z,93.10
2023-06-07T15:39:46.390Z,93.60
2023-06-07T15:42:14.861Z,92.60
2023-06-07T15:44:43.421Z,94.00
2023-06-07T15:47:11.641Z,94.30
2023-06-07T15:49:39.562Z,92.40
2023-06-07T15:52:09.013Z,93.70
2023-06-07T15:54:36.847Z,93.00
2023-06-07T15:57:06.828Z,94.00
2023-06-07T15:59:36.177Z,91.60
2023-06-07T16:02:04.274Z,92.30
2023-06-07T16:04:32.923Z,94.10
2023-06-07T16:07:01.890Z,91.90
2023-06-07T16:09:31.092Z,93.10
2023-06-07T16:11:58.900Z,92.10
2023-06-07T16:14:26.874Z,94.40
2023-06-07T16:16:54.980Z,92.50
2023-06-07T16:19:22.866Z,94.60
2023-06-07T16:21:50.915Z,93.50
2023-06-07T16:24:18.906Z,94.00
2023-06-07T16:26:48.092Z,93.50
2023-06-07T16:29:15.954Z,95.40
2023-06-07T16:31:43.901Z,94.70
2023-06-07T16:34:11.827Z,95.00
2023-06-07T16:36:39.821Z,95.00
2023-06-07T16:39:08.982Z,94.80
2023-06-07T16:41:41.313Z,92.90
2023-06-07T16:44:11.171Z,93.20
2023-06-07T16:46:39.799Z,94.40
2023-06-07T16:49:08.007Z,95.00
2023-06-07T16:51:36.009Z,92.10
2023-06-07T16:54:03.870Z,95.70
2023-06-07T16:56:31.704Z,94.70
2023-06-07T16:58:59.572Z,94.90
2023-06-07T17:01:30.542Z,95.80
2023-06-07T17:03:58.556Z,93.90
2023-06-07T17:06:26.563Z,95.90
2023-06-07T17:08:54.480Z,93.10
2023-06-07T17:11:22.331Z,95.10
2023-06-07T17:13:50.455Z,94.50
2023-06-07T17:16:18.456Z,95.70
2023-06-07T17:18:48.140Z,94.70
2023-06-07T17:21:16.012Z,93.70
2023-06-07T17:23:43.878Z,93.40
2023-06-07T17:26:11.792Z,96.50
2023-06-07T17:28:39.707Z,93.00
2023-06-07T17:31:07.694Z,96.40
2023-06-07T17:33:35.899Z,94.50
2023-06-07T17:36:05.470Z,96.70
2023-06-07T17:38:33.296Z,96.60
2023-06-07T17:41:01.260Z,96.40
2023-06-07T17:43:30.296Z,96.20
2023-06-07T17:45:58.179Z,96.50
2023-06-07T17:48:26.399Z,96.20
2023-06-07T17:50:55.189Z,96.40
2023-06-07T17:53:24.371Z,96.70
2023-06-07T17:55:52.165Z,96.50
2023-06-07T17:58:20.016Z,96.60
2023-06-07T18:00:47.848Z,96.90
2023-06-07T18:03:20.327Z,96.80
2023-06-07T18:05:48.473Z,96.70
2023-06-07T18:08:16.350Z,96.70
2023-06-07T18:10:45.664Z,96.80
2023-06-07T18:13:13.503Z,96.80
2023-06-07T18:15:41.425Z,96.70
2023-06-07T18:18:09.424Z,95.60
2023-06-07T18:20:37.672Z,96.80
2023-06-07T18:23:05.717Z,96.90
2023-06-07T18:25:33.779Z,96.80
2023-06-07T18:28:03.001Z,96.80
2023-06-07T18:30:31.560Z,97.00
2023-06-07T18:32:59.849Z,96.90
2023-06-07T18:35:27.745Z,96.90
2023-06-07T18:37:55.549Z,96.90
2023-06-07T18:40:23.384Z,97.00
2023-06-07T18:42:51.350Z,97.10
2023-06-07T18:45:20.589Z,97.10
2023-06-07T18:47:48.562Z,97.20
2023-06-07T18:50:17.611Z,97.20
2023-06-07T18:52:45.452Z,97.30
2023-06-07T18:55:13.269Z,97.30
2023-06-07T18:57:41.386Z,97.50
2023-06-07T19:00:10.365Z,97.40
2023-06-07T19:02:40.186Z,97.60
2023-06-07T19:05:09.461Z,97.60
2023-06-07T19:07:37.283Z,97.70
2023-06-07T19:10:05.963Z,97.80
2023-06-07T19:12:33.866Z,97.90
2023-06-07T19:15:01.658Z,98.00
2023-06-07T19:17:29.608Z,98.10
2023-06-07T19:20:00.527Z,98.20
2023-06-07T19:22:28.561Z,98.20
2023-06-07T19:24:56.452Z,98.30
2023-06-07T19:27:24.295Z,98.40
2023-06-07T19:29:52.165Z,98.50
2023-06-07T19:32:20.034Z,98.60
2023-06-07T19:34:49.845Z,98.70
2023-06-07T19:37:20.410Z,98.80
2023-06-07T19:39:48.244Z,98.90
2023-06-07T19:42:19.839Z,99.00
2023-06-07T19:44:47.671Z,99.10
2023-06-07T19:47:15.557Z,99.10
2023-06-07T19:49:43.390Z,99.30
2023-06-07T19:52:11.222Z,99.30
2023-06-07T19:54:40.459Z,99.40
2023-06-07T19:57:09.195Z,99.50
2023-06-07T19:59:38.765Z,99.50
2023-06-07T20:02:07.994Z,99.60
2023-06-07T20:04:36.084Z,99.70
2023-06-07T20:07:07.389Z,99.80
2023-06-07T20:09:36.856Z,99.80
2023-06-07T20:12:07.961Z,99.80
2023-06-07T20:14:36.655Z,99.90
2023-06-07T20:17:04.912Z,99.90
2023-06-07T20:19:32.774Z,99.90
2023-06-07T20:22:00.602Z,99.90
2023-06-07T20:24:45.048Z,99.90
2023-06-07T20:27:14.235Z,99.90
2023-06-07T20:29:42.770Z,99.90
2023-06-07T20:32:11.942Z,99.90
2023-06-07T20:34:39.906Z,99.90
2023-06-07T20:37:07.822Z,99.90
2023-06-07T20:39:36.129Z,99.90
2023-06-07T20:42:04.702Z,99.90
2023-06-07T20:44:43.990Z,99.90
2023-06-07T20:47:19.660Z,99.90
2023-06-07T20:49:47.554Z,99.90
2023-06-07T20:52:15.968Z,99.80
2023-06-07T20:54:43.904Z,99.90
2023-06-07T20:57:11.732Z,99.90
2023-06-07T20:59:45.943Z,99.90
2023-06-07T21:02:13.832Z,99.90
2023-06-07T21:04:41.667Z,99.90
2023-06-07T21:07:09.878Z,99.90
2023-06-07T21:09:37.724Z,99.90
2023-06-07T21:12:07.248Z,99.90
2023-06-07T21:14:35.243Z,99.90
2023-06-07T21:17:04.546Z,99.90
2023-06-07T21:19:32.444Z,99.90
2023-06-07T21:22:00.396Z,99.90
2023-06-07T21:24:28.242Z,99.90
2023-06-07T21:26:56.104Z,99.90
2023-06-07T21:29:23.974Z,99.90
2023-06-07T21:31:51.778Z,99.90
2023-06-07T21:34:20.963Z,99.90
2023-06-07T21:36:48.857Z,99.90
2023-06-07T21:39:16.677Z,99.90
2023-06-07T21:41:44.561Z,99.90
2023-06-07T21:44:12.383Z,99.90
2023-06-07T21:46:40.249Z,99.90
2023-06-07T21:49:08.116Z,99.90
2023-06-07T21:51:40.435Z,99.90
2023-06-07T21:54:08.998Z,99.90
2023-06-07T21:56:36.863Z,99.90
2023-06-07T21:59:04.710Z,99.90
2023-06-07T22:01:32.591Z,99.90
2023-06-07T22:04:00.506Z,99.90
2023-06-07T22:06:28.360Z,99.90
2023-06-07T22:08:57.842Z,99.90
2023-06-07T22:11:25.947Z,99.90
2023-06-07T22:13:53.873Z,99.90
2023-06-07T22:16:21.900Z,99.90
2023-06-07T22:18:50.762Z,99.90
2023-06-07T22:21:18.629Z,99.90
2023-06-07T22:23:46.517Z,99.90
2023-06-07T22:26:16.141Z,99.90
2023-06-07T22:28:44.001Z,99.90
2023-06-07T22:31:11.874Z,99.90
2023-06-07T22:33:39.716Z,99.90
2023-06-07T22:36:08.160Z,99.90
2023-06-07T22:38:36.039Z,99.90
2023-06-07T22:41:03.905Z,99.90
2023-06-07T22:43:33.778Z,99.90
2023-06-07T22:46:01.610Z,99.90
2023-06-07T22:48:29.829Z,99.90
2023-06-07T22:50:58.043Z,99.90
2023-06-07T22:53:25.889Z,99.90
2023-06-07T22:55:53.892Z,99.90
2023-06-07T23:01:05.155Z,99.90
2023-06-07T23:03:33.741Z,99.90
2023-06-07T23:06:02.370Z,99.90
2023-06-07T23:08:30.868Z,99.90
2023-06-07T23:10:58.690Z,99.90
2023-06-07T23:13:27.915Z,99.90
2023-06-07T23:15:56.576Z,99.90
2023-06-07T23:18:31.504Z,99.90
2023-06-07T23:21:02.066Z,99.90
2023-06-07T23:23:30.326Z,99.90
2023-06-07T23:25:58.350Z,99.90
2023-06-07T23:28:26.186Z,99.90
2023-06-07T23:30:54.048Z,99.90
2023-06-07T23:33:21.999Z,99.90
2023-06-07T23:35:51.464Z,99.90
2023-06-07T23:38:19.337Z,99.90
2023-06-07T23:40:47.182Z,99.90
2023-06-07T23:43:15.048Z,99.90
2023-06-07T23:45:42.931Z,99.90
2023-06-07T23:48:11.631Z,99.90
2023-06-07T23:50:39.564Z,99.90
2023-06-07T23:53:09.608Z,99.90
2023-06-07T23:55:37.484Z,99.90
2023-06-07T23:58:05.348Z,99.90
